Decoded Metar for KRRL (MERRILL in WI, USA) (IATA:RRL) | Meteo·Mobile Aviation Weather
aviador You're here:

KRRL Decoded Metar

MERRILL in WI, USA
Report Time2019-06-18 14:35:00
UTC Time2019-06-18 14:49:25
Flight Rules vfr VFR
Wind290° at 04 kt
W.Decomp.*RWY 25: 3.0 kt HW 2.6 kt RCW
RWY 34: 2.6 kt HW 3 kt LCW
Visibility9999 m
Phenomena:N/A
Clouds:Scattered 012 Hf
Broken 038 Hf
Overcast 065 Hf
Expected CloudBase > 1,200 ft AGL from Temp-Dew spread
Ceiling3,800 ft
Temp18°C (ISA +6)
Dew Point15°C (83% RH)
QNH1015 hPa
Density Alt2,139 ft
Elevation1,316 ft
Report Wrong Elevation
Raw Report
KRRL 181435Z AUTO 29004KT 10SM SCT012 BKN038 OVC065 18/15 A2996
RMK AO2 T01790153 TSNO=

Extra information for KRRL:More info

Metar Taf Metar & Taf Last 4 Metars F.Rules Stats Wind Profile Meteogram Temp Stats Airport Information Weather charts Add Link Nearby VenuesMetar ALERT Operation Metar Decoded Social comments

AIRNAV info for KRRL